createdAt,value
2022-11-29T00:04:54.136Z,2.69
2022-11-29T00:14:57.694Z,2.59
2022-11-29T00:25:01.300Z,2.47
2022-11-29T00:35:09.417Z,2.40
2022-11-29T00:45:13.500Z,2.36
2022-11-29T00:55:17.182Z,2.36
2022-11-29T01:05:20.863Z,2.25
2022-11-29T01:15:24.457Z,2.22
2022-11-29T01:25:28.235Z,2.15
2022-11-29T01:35:31.867Z,2.00
2022-11-29T01:45:38.450Z,1.98
2022-11-29T01:55:47.329Z,1.97
2022-11-29T02:05:53.303Z,1.93
2022-11-29T02:15:56.910Z,1.89
2022-11-29T02:26:20.215Z,1.78
2022-11-29T02:36:42.999Z,1.85
2022-11-29T02:47:24.813Z,1.93
2022-11-29T02:57:40.637Z,1.81
2022-11-29T03:08:06.142Z,1.70
2022-11-29T03:18:31.468Z,1.76
2022-11-29T03:29:07.323Z,1.79
2022-11-29T03:39:19.360Z,1.73
2022-11-29T03:49:38.088Z,1.65
2022-11-29T04:00:07.796Z,1.63
2022-11-29T04:10:44.649Z,1.68
2022-11-29T04:20:55.711Z,1.68
2022-11-29T04:31:17.808Z,1.71
2022-11-29T04:41:46.655Z,1.74
2022-11-29T04:52:08.831Z,1.74
2022-11-29T05:02:35.438Z,1.71
2022-11-29T05:12:56.076Z,1.81
2022-11-29T05:23:21.926Z,1.83
2022-11-29T05:33:54.103Z,1.84
2022-11-29T05:44:24.360Z,1.83
2022-11-29T05:54:42.243Z,1.87
2022-11-29T06:05:08.109Z,1.90
2022-11-29T06:16:09.366Z,1.88
2022-11-29T06:26:30.181Z,1.93
2022-11-29T06:36:58.870Z,1.91
2022-11-29T06:47:08.420Z,1.89
2022-11-29T06:57:40.481Z,1.84
2022-11-29T07:07:44.467Z,1.87
2022-11-29T07:18:29.942Z,1.91
2022-11-29T07:28:36.611Z,1.87
2022-11-29T07:39:09.384Z,1.90
2022-11-29T07:49:13.038Z,1.83
2022-11-29T07:59:16.695Z,1.82
2022-11-29T08:09:20.421Z,1.84
2022-11-29T08:19:24.063Z,1.99
2022-11-29T08:29:27.820Z,2.02
2022-11-29T08:39:31.457Z,2.07
2022-11-29T08:49:35.035Z,2.12
2022-11-29T08:59:38.594Z,2.21
2022-11-29T09:09:42.420Z,2.27
2022-11-29T09:19:46.021Z,2.24
2022-11-29T09:29:49.616Z,2.21
2022-11-29T09:39:53.398Z,2.27
2022-11-29T09:49:59.936Z,2.29
2022-11-29T10:00:07.582Z,2.38
2022-11-29T10:10:37.867Z,2.41
2022-11-29T10:20:48.765Z,2.35
2022-11-29T10:30:59.140Z,2.27
2022-11-29T10:41:13.915Z,2.33
2022-11-29T10:51:18.303Z,2.38
2022-11-29T11:01:22.379Z,2.37
2022-11-29T11:11:32.152Z,2.52
2022-11-29T11:21:38.812Z,2.66
2022-11-29T11:31:42.424Z,2.61
2022-11-29T11:42:05.780Z,2.54
2022-11-29T11:52:20.331Z,2.50
2022-11-29T12:02:27.021Z,2.49
2022-11-29T12:12:37.362Z,2.53
2022-11-29T12:23:06.167Z,2.59
2022-11-29T12:33:18.762Z,2.47
2022-11-29T12:43:46.734Z,2.42
2022-11-29T12:53:53.545Z,2.32
2022-11-29T13:04:07.911Z,2.19
2022-11-29T13:14:46.398Z,2.19
2022-11-29T13:24:54.586Z,2.26
2022-11-29T13:35:08.432Z,2.17
2022-11-29T13:45:46.545Z,2.15
2022-11-29T13:56:03.069Z,2.12
2022-11-29T14:06:32.529Z,1.98
2022-11-29T14:16:42.146Z,1.88
2022-11-29T14:26:45.879Z,1.98
2022-11-29T14:37:08.817Z,1.96
2022-11-29T14:47:27.026Z,1.81
2022-11-29T14:58:02.369Z,1.73
2022-11-29T15:08:15.276Z,1.67
2022-11-29T15:18:34.984Z,1.70
2022-11-29T15:28:38.641Z,1.72
2022-11-29T15:38:46.746Z,1.66
2022-11-29T15:48:50.474Z,1.69
2022-11-29T15:58:59.992Z,1.78
2022-11-29T16:09:04.647Z,1.82
2022-11-29T16:19:28.513Z,1.83
2022-11-29T16:29:38.602Z,1.87
2022-11-29T16:39:47.119Z,1.84
2022-11-29T16:50:18.728Z,1.90
2022-11-29T17:00:29.222Z,1.87
2022-11-29T17:10:33.090Z,1.83
2022-11-29T17:20:36.917Z,1.86
2022-11-29T17:30:40.620Z,1.83
2022-11-29T17:40:44.275Z,1.81
2022-11-29T17:50:47.997Z,1.79
2022-11-29T18:00:51.686Z,1.69
2022-11-29T18:11:13.697Z,1.58
2022-11-29T18:21:17.323Z,1.50
2022-11-29T18:31:22.650Z,1.59
2022-11-29T18:41:28.465Z,1.50
2022-11-29T18:51:33.164Z,1.49
2022-11-29T19:01:41.392Z,1.48
2022-11-29T19:11:45.301Z,1.52
2022-11-29T19:21:49.287Z,1.43
2022-11-29T19:31:53.727Z,1.35
2022-11-29T19:41:57.828Z,1.39
2022-11-29T19:52:01.437Z,1.53
2022-11-29T20:02:05.201Z,1.73
2022-11-29T20:12:08.951Z,2.02
2022-11-29T20:22:12.541Z,2.31
2022-11-29T20:32:17.131Z,2.45
2022-11-29T20:42:39.076Z,2.52
2022-11-29T20:52:57.640Z,2.84
2022-11-29T21:03:01.227Z,2.90
2022-11-29T21:13:05.131Z,3.05
2022-11-29T21:23:27.327Z,3.18
2022-11-29T21:33:31.343Z,3.13
2022-11-29T21:44:04.796Z,3.10
2022-11-29T21:53:58.610Z,3.06
2022-11-29T22:04:02.317Z,3.04
2022-11-29T22:14:15.334Z,3.16
2022-11-29T22:24:21.286Z,3.18
2022-11-29T22:34:26.958Z,3.07
2022-11-29T22:44:31.512Z,3.14
2022-11-29T22:54:35.353Z,3.20
2022-11-29T23:04:38.934Z,2.98
2022-11-29T23:14:42.565Z,3.01
2022-11-29T23:24:46.372Z,3.06
2022-11-29T23:34:50.086Z,3.01
2022-11-29T23:44:53.733Z,3.00
2022-11-29T23:54:57.292Z,2.89
